This is the latest recevied weather packets stored in our database for station/object VA3ECP. If no packets are shown the sender has not sent any weather packets the latest 10 day(s).
| Time | Temp. | Humidity | Pressure | Rain* | Wind** | Luminosity | Snow |
|---|---|---|---|---|---|---|---|
| 1777670428 | 11.67° C | 53% | 1011.2 hPa | 0 mm | - | - | - |
| 1777669227 | 11.67° C | 52% | 1011.2 hPa | 0 mm | - | - | - |
| 1777665637 | 12.78° C | 49% | 1011.1 hPa | 0 mm | - | - | - |
| 1777661425 | 12.78° C | 51% | 1011.8 hPa | 0 mm | - | - | - |
| 1777657233 | 11.67° C | 53% | 1012.1 hPa | 0 mm | - | - | - |
| 1777654226 | 12.78° C | 49% | 1012.4 hPa | 0 mm | - | - | - |
| 1777653630 | 13.89° C | 50% | 1012.6 hPa | 0 mm | - | - | - |
| 1777649427 | 11.67° C | 52% | 1012.9 hPa | 0 mm | - | - | - |
| 1777647624 | 10.56° C | 53% | 1013.1 hPa | 0 mm | - | - | - |
| 1777647026 | 10.56° C | 53% | 1013.3 hPa | 0 mm | - | - | - |
| 1777646428 | 10.56° C | 54% | 1013.3 hPa | 0 mm | - | - | - |
| 1777640420 | 7.22° C | 65% | 1013.6 hPa | 0 mm | - | - | - |
| 1777633826 | 1.11° C | 85% | 1013.5 hPa | 0 mm | - | - | - |
| 1777629622 | -1.11° C | 86% | 1013.1 hPa | 0 mm | - | - | - |
| 1777623030 | 1.11° C | 82% | 1012.6 hPa | 0 mm | - | - | - |
| 1777610420 | 6.11° C | 81% | 1012 hPa | 0 mm | - | - | - |
| 1777609821 | 6.11° C | 82% | 1012 hPa | 0 mm | - | - | - |
| 1777605623 | 6.67° C | 80% | 1011.8 hPa | 0 mm | - | - | - |
| 1777605023 | 6.67° C | 79% | 1011.8 hPa | 0 mm | - | - | - |
| 1777603222 | 6.67° C | 79% | 1011.6 hPa | 0 mm | - | - | - |
| 1777598421 | 6.67° C | 79% | 1011.2 hPa | 0 mm | - | - | - |
| 1777597223 | 6.11° C | 79% | 1011.1 hPa | 0 mm | - | - | - |
| 1777593040 | 8.33° C | 71% | 1010.4 hPa | 0 mm | - | - | - |
| 1777586421 | 9.44° C | 69% | 1010.1 hPa | 0 mm | - | - | - |
| 1777578019 | 9.44° C | 76% | 1009 hPa | 0 mm | - | - | - |
* Rain latest hour (hover to see other rain measurements)
** Current wind speed in m/s (hover to see current wind gust speed)